createdAt,value
2018-03-07T00:00:32.049Z,81.86
2018-03-07T00:01:32.223Z,81.82
2018-03-07T00:02:32.397Z,81.95
2018-03-07T00:03:32.575Z,82.20
2018-03-07T00:04:32.752Z,82.01
2018-03-07T00:05:32.918Z,82.10
2018-03-07T00:06:33.097Z,82.29
2018-03-07T00:07:33.277Z,82.33
2018-03-07T00:08:33.446Z,82.43
2018-03-07T00:09:33.624Z,82.01
2018-03-07T00:11:33.986Z,82.76
2018-03-07T00:12:34.142Z,82.43
2018-03-07T00:13:34.318Z,82.29
2018-03-07T00:14:34.497Z,82.05
2018-03-07T00:15:34.669Z,82.33
2018-03-07T00:16:34.846Z,82.24
2018-03-07T00:17:35.020Z,81.67
2018-03-07T00:18:35.195Z,81.57
2018-03-07T00:19:35.378Z,81.86
2018-03-07T00:20:35.904Z,81.67
2018-03-07T00:21:35.729Z,81.01
2018-03-07T00:22:35.900Z,81.20
2018-03-07T00:23:36.109Z,80.82
2018-03-07T00:24:36.247Z,81.10
2018-03-07T00:25:36.427Z,80.91
2018-03-07T00:26:36.589Z,80.72
2018-03-07T00:27:36.760Z,80.44
2018-03-07T00:28:36.939Z,80.34
2018-03-07T00:29:37.120Z,80.06
2018-03-07T00:30:37.291Z,80.25
2018-03-07T00:31:37.467Z,79.68
2018-03-07T00:32:37.641Z,78.83
2018-03-07T00:33:37.817Z,79.58
2018-03-07T00:34:37.988Z,78.92
2018-03-07T00:35:38.162Z,79.39
2018-03-07T00:36:38.341Z,78.73
2018-03-07T00:37:38.519Z,78.92
2018-03-07T00:38:38.683Z,79.30
2018-03-07T00:39:38.861Z,79.64
2018-03-07T00:40:39.037Z,80.21
2018-03-07T00:41:39.210Z,79.64
2018-03-07T00:42:39.393Z,80.30
2018-03-07T00:43:39.565Z,80.30
2018-03-07T00:44:39.742Z,79.96
2018-03-07T00:45:39.901Z,79.64
2018-03-07T00:46:40.078Z,79.45
2018-03-07T00:47:40.257Z,80.15
2018-03-07T00:48:40.431Z,80.53
2018-03-07T00:49:40.607Z,80.06
2018-03-07T00:50:40.774Z,80.02
2018-03-07T00:51:40.956Z,80.40
2018-03-07T00:52:41.132Z,80.49
2018-03-07T00:53:41.301Z,80.77
2018-03-07T00:54:41.479Z,80.40
2018-03-07T00:55:41.648Z,81.06
2018-03-07T00:56:41.824Z,81.15
2018-03-07T00:57:41.998Z,81.92
2018-03-07T00:58:42.179Z,81.44
2018-03-07T00:59:42.353Z,82.01
2018-03-07T01:00:42.531Z,82.48
2018-03-07T01:01:42.704Z,82.76
2018-03-07T01:02:42.881Z,83.62
2018-03-07T01:03:43.050Z,83.43
2018-03-07T01:04:43.230Z,83.43
2018-03-07T01:05:43.403Z,83.62
2018-03-07T01:06:43.579Z,83.71
2018-03-07T01:07:43.753Z,83.62
2018-03-07T01:08:43.935Z,83.62
2018-03-07T01:09:44.101Z,83.62
2018-03-07T01:10:44.528Z,83.62
2018-03-07T01:11:44.457Z,83.33
2018-03-07T01:12:44.628Z,82.95
2018-03-07T01:13:44.808Z,82.86
2018-03-07T01:14:44.984Z,83.52
2018-03-07T01:15:45.177Z,84.09
2018-03-07T01:16:45.324Z,83.52
2018-03-07T01:17:45.501Z,83.14
2018-03-07T01:18:45.680Z,83.52
2018-03-07T01:19:45.851Z,83.71
2018-03-07T01:20:46.278Z,83.62
2018-03-07T01:21:46.204Z,83.71
2018-03-07T01:22:46.378Z,83.52
2018-03-07T01:23:46.559Z,83.43
2018-03-07T01:24:46.723Z,82.86
2018-03-07T01:25:46.908Z,83.24
2018-03-07T01:26:47.091Z,82.76
2018-03-07T01:27:47.249Z,82.95
2018-03-07T01:28:47.422Z,83.52
2018-03-07T01:29:47.597Z,83.43
2018-03-07T01:30:47.773Z,83.62
2018-03-07T01:31:47.951Z,83.52
2018-03-07T01:32:48.123Z,83.43
2018-03-07T01:33:48.300Z,83.71
2018-03-07T01:34:48.473Z,83.24
2018-03-07T01:35:48.650Z,83.33
2018-03-07T01:36:48.825Z,83.43
2018-03-07T01:37:48.997Z,83.14
2018-03-07T01:38:49.177Z,83.24
2018-03-07T01:39:49.347Z,83.71
2018-03-07T01:40:49.528Z,84.19
2018-03-07T01:41:49.705Z,84.00
2018-03-07T01:42:49.872Z,84.28
2018-03-07T01:44:50.218Z,83.71
2018-03-07T01:45:50.388Z,84.00
2018-03-07T01:46:50.556Z,83.33
2018-03-07T01:47:50.735Z,83.33
2018-03-07T01:48:50.907Z,83.52
2018-03-07T01:49:51.083Z,83.81
2018-03-07T01:50:51.254Z,84.00
2018-03-07T01:51:51.431Z,84.00
2018-03-07T01:52:51.604Z,84.09
2018-03-07T01:53:51.778Z,84.00
2018-03-07T01:54:51.948Z,84.28
2018-03-07T01:55:52.126Z,83.90
2018-03-07T01:56:52.304Z,84.28
2018-03-07T01:57:52.475Z,84.19
2018-03-07T01:58:52.655Z,84.00
2018-03-07T01:59:52.825Z,83.81
2018-03-07T02:00:53.003Z,84.28
2018-03-07T02:01:53.172Z,84.19
2018-03-07T02:02:53.346Z,84.00
2018-03-07T02:03:53.528Z,83.86
2018-03-07T02:04:53.694Z,84.56
2018-03-07T02:05:53.872Z,84.42
2018-03-07T02:06:54.042Z,85.04
2018-03-07T02:07:54.217Z,85.00
2018-03-07T02:08:54.392Z,85.38
2018-03-07T02:09:54.564Z,84.75
2018-03-07T02:10:54.744Z,85.19
2018-03-07T02:11:54.927Z,85.23
2018-03-07T02:12:55.084Z,84.52
2018-03-07T02:13:55.504Z,84.85
2018-03-07T02:14:55.445Z,84.66
2018-03-07T02:15:55.612Z,84.94
2018-03-07T02:17:55.955Z,84.61
2018-03-07T02:18:56.136Z,85.19
2018-03-07T02:19:56.303Z,85.38
2018-03-07T02:20:56.483Z,86.04
2018-03-07T02:21:56.649Z,85.57
2018-03-07T02:22:56.824Z,85.75
2018-03-07T02:23:56.994Z,85.94
2018-03-07T02:24:57.168Z,85.28
2018-03-07T02:25:57.345Z,85.42
2018-03-07T02:26:57.523Z,84.85
2018-03-07T02:27:57.691Z,85.04
2018-03-07T02:28:57.866Z,84.66
2018-03-07T02:29:58.039Z,84.85
2018-03-07T02:30:58.217Z,84.28
2018-03-07T02:31:58.394Z,84.00
2018-03-07T02:32:58.577Z,84.47
2018-03-07T02:33:58.745Z,84.56
2018-03-07T02:34:58.923Z,83.71
2018-03-07T02:35:59.092Z,84.28
2018-03-07T02:36:59.274Z,84.75
2018-03-07T02:37:59.446Z,84.00
2018-03-07T02:38:59.641Z,84.19
2018-03-07T02:39:59.808Z,84.19
2018-03-07T02:40:59.982Z,84.00
2018-03-07T02:42:00.161Z,83.52
2018-03-07T02:43:00.349Z,83.81
2018-03-07T02:44:00.498Z,82.95
2018-03-07T02:45:00.677Z,82.01
2018-03-07T02:46:00.850Z,82.20
2018-03-07T02:47:01.015Z,82.01
2018-03-07T02:48:01.189Z,81.63
2018-03-07T02:49:01.362Z,81.53
2018-03-07T02:50:01.541Z,81.72
2018-03-07T02:51:01.714Z,81.53
2018-03-07T02:52:01.889Z,81.72
2018-03-07T02:53:02.068Z,81.63
2018-03-07T02:54:02.236Z,81.82
2018-03-07T02:55:02.422Z,81.44
2018-03-07T02:56:02.585Z,80.96
2018-03-07T02:57:02.765Z,81.82
2018-03-07T02:58:02.936Z,81.82
2018-03-07T02:59:03.112Z,81.92
2018-03-07T03:00:03.289Z,81.63
2018-03-07T03:01:03.464Z,82.01
2018-03-07T03:02:03.636Z,82.10
2018-03-07T03:03:03.815Z,82.01
2018-03-07T03:04:03.989Z,81.82
2018-03-07T03:05:04.165Z,81.92
2018-03-07T03:06:04.344Z,81.63
2018-03-07T03:07:04.509Z,81.72
2018-03-07T03:08:04.696Z,81.63
2018-03-07T03:09:04.879Z,82.10
2018-03-07T03:10:05.043Z,81.72
2018-03-07T03:11:05.208Z,81.72
2018-03-07T03:12:05.388Z,81.72
2018-03-07T03:13:05.562Z,81.25
2018-03-07T03:14:05.736Z,81.06
2018-03-07T03:15:05.913Z,81.15
2018-03-07T03:16:06.090Z,81.82
2018-03-07T03:17:06.263Z,81.92
2018-03-07T03:18:06.436Z,82.10
2018-03-07T03:19:06.614Z,83.05
2018-03-07T03:20:06.799Z,83.33
2018-03-07T03:21:06.966Z,83.33
2018-03-07T03:22:07.142Z,84.19
2018-03-07T03:23:07.315Z,84.28
2018-03-07T03:24:07.490Z,84.19
2018-03-07T03:25:07.664Z,84.38
2018-03-07T03:26:07.837Z,84.19
2018-03-07T03:28:08.185Z,84.85
2018-03-07T03:29:08.367Z,84.75
2018-03-07T03:30:08.539Z,85.85
2018-03-07T03:31:08.713Z,85.94
2018-03-07T03:32:08.896Z,86.04
2018-03-07T03:33:09.074Z,85.47
2018-03-07T03:34:09.249Z,85.19
2018-03-07T03:35:09.422Z,85.42
2018-03-07T03:36:09.603Z,85.38
2018-03-07T03:37:09.775Z,85.51
2018-03-07T03:38:09.947Z,85.19
2018-03-07T03:39:10.121Z,85.19
2018-03-07T03:40:10.299Z,85.47
2018-03-07T03:41:10.479Z,85.47
2018-03-07T03:42:10.652Z,85.47
2018-03-07T03:43:10.826Z,85.66
2018-03-07T03:44:10.997Z,85.42
2018-03-07T03:45:11.166Z,85.70
2018-03-07T03:46:11.343Z,85.61
2018-03-07T03:47:11.524Z,85.85
2018-03-07T03:48:11.689Z,85.38
2018-03-07T03:49:11.859Z,85.57
2018-03-07T03:50:12.039Z,85.99
2018-03-07T03:51:12.211Z,85.75
2018-03-07T03:52:12.385Z,85.75
2018-03-07T03:53:12.560Z,86.32
2018-03-07T03:54:12.735Z,86.60
2018-03-07T03:55:12.905Z,86.51
2018-03-07T03:56:13.082Z,86.41
2018-03-07T03:57:13.253Z,86.32
2018-03-07T03:58:13.428Z,86.79
2018-03-07T03:59:13.600Z,86.60
2018-03-07T04:00:13.775Z,86.89
2018-03-07T04:01:13.951Z,87.17
2018-03-07T04:02:14.130Z,86.79
2018-03-07T04:03:14.303Z,86.89
2018-03-07T04:04:14.474Z,86.89
2018-03-07T04:05:14.652Z,86.79
2018-03-07T04:06:14.823Z,87.36
2018-03-07T04:07:15.004Z,87.84
2018-03-07T04:08:15.176Z,87.46
2018-03-07T04:09:15.355Z,86.70
2018-03-07T04:10:15.523Z,86.79
2018-03-07T04:11:15.704Z,86.98
2018-03-07T04:12:16.120Z,86.89
2018-03-07T04:13:16.044Z,86.74
2018-03-07T04:14:16.219Z,87.21
2018-03-07T04:15:16.402Z,86.18
2018-03-07T04:16:16.567Z,86.46
2018-03-07T04:17:16.742Z,86.27
2018-03-07T04:18:16.917Z,85.89
2018-03-07T04:19:17.090Z,85.99
2018-03-07T04:20:17.264Z,85.80
2018-03-07T04:21:17.452Z,85.23
2018-03-07T04:22:17.620Z,85.89
2018-03-07T04:23:17.790Z,85.23
2018-03-07T04:24:17.968Z,84.47
2018-03-07T04:25:18.141Z,84.66
2018-03-07T04:26:18.308Z,84.94
2018-03-07T04:27:18.488Z,85.23
2018-03-07T04:28:18.657Z,85.51
2018-03-07T04:29:18.832Z,85.13
2018-03-07T04:30:19.006Z,84.94
2018-03-07T04:31:19.178Z,84.94
2018-03-07T04:32:19.366Z,85.04
2018-03-07T04:33:19.530Z,85.23
2018-03-07T04:34:19.708Z,85.23
2018-03-07T04:35:19.874Z,85.13
2018-03-07T04:36:20.047Z,85.04
2018-03-07T04:37:20.233Z,85.32
2018-03-07T04:38:20.397Z,85.42
2018-03-07T04:39:20.580Z,85.23
2018-03-07T04:40:20.750Z,85.23
2018-03-07T04:41:20.922Z,85.61
2018-03-07T04:42:21.096Z,85.23
2018-03-07T04:43:21.269Z,85.61
2018-03-07T04:44:21.447Z,85.61
2018-03-07T04:45:21.623Z,85.89
2018-03-07T04:46:21.792Z,85.61
2018-03-07T04:47:22.208Z,86.55
2018-03-07T04:48:22.149Z,85.99
2018-03-07T04:49:22.321Z,86.65
2018-03-07T04:50:22.499Z,86.55
2018-03-07T04:51:22.675Z,86.65
2018-03-07T04:52:22.843Z,86.74
2018-03-07T04:53:23.015Z,86.36
2018-03-07T04:54:23.193Z,86.08
2018-03-07T04:55:23.364Z,86.27
2018-03-07T04:56:23.540Z,86.46
2018-03-07T04:57:23.713Z,86.55
2018-03-07T04:58:23.888Z,85.99
2018-03-07T04:59:24.065Z,86.27
2018-03-07T05:01:24.406Z,86.46
2018-03-07T05:02:24.585Z,85.99
2018-03-07T05:03:24.759Z,86.83
2018-03-07T05:04:24.930Z,86.46
2018-03-07T05:05:25.103Z,86.18
2018-03-07T05:06:25.276Z,86.27
2018-03-07T05:07:25.451Z,86.83
2018-03-07T05:08:25.628Z,86.55
2018-03-07T05:09:25.803Z,86.55
2018-03-07T05:10:25.985Z,86.83
2018-03-07T05:11:26.146Z,86.83
2018-03-07T05:12:26.324Z,86.93
2018-03-07T05:13:26.493Z,87.21
2018-03-07T05:14:26.668Z,87.12
2018-03-07T05:15:26.849Z,87.12
2018-03-07T05:16:27.017Z,87.69
2018-03-07T05:17:27.188Z,86.93
2018-03-07T05:18:27.365Z,86.74
2018-03-07T05:19:27.541Z,86.83
2018-03-07T05:20:27.724Z,86.93
2018-03-07T05:21:27.890Z,87.40
2018-03-07T05:22:28.069Z,87.78
2018-03-07T05:23:28.243Z,87.02
2018-03-07T05:24:28.407Z,87.21
2018-03-07T05:25:28.592Z,86.93
2018-03-07T05:26:28.758Z,86.74
2018-03-07T05:27:28.935Z,86.65
2018-03-07T05:28:29.111Z,86.74
2018-03-07T05:29:29.289Z,85.99
2018-03-07T05:30:29.465Z,86.83
2018-03-07T05:31:29.637Z,86.74
2018-03-07T05:32:29.816Z,86.46
2018-03-07T05:33:29.991Z,86.55
2018-03-07T05:34:30.157Z,86.65
2018-03-07T05:35:30.331Z,86.83
2018-03-07T05:36:30.507Z,86.65
2018-03-07T05:37:30.682Z,86.65
2018-03-07T05:38:30.860Z,86.83
2018-03-07T05:39:31.030Z,86.83
2018-03-07T05:40:31.206Z,87.02
2018-03-07T05:41:31.381Z,86.93
2018-03-07T05:42:31.553Z,87.02
2018-03-07T05:44:31.894Z,87.21
2018-03-07T05:45:32.069Z,87.78
2018-03-07T05:46:32.244Z,86.83
2018-03-07T05:47:32.418Z,86.93
2018-03-07T05:48:32.594Z,86.46
2018-03-07T05:49:32.776Z,86.93
2018-03-07T05:50:32.943Z,86.88
2018-03-07T05:51:33.128Z,86.50
2018-03-07T05:52:33.300Z,86.31
2018-03-07T05:53:33.487Z,86.31
2018-03-07T05:54:33.656Z,86.98
2018-03-07T05:55:33.822Z,86.83
2018-03-07T05:56:33.998Z,86.69
2018-03-07T05:57:34.171Z,86.79
2018-03-07T05:58:34.344Z,86.50
2018-03-07T05:59:34.519Z,86.79
2018-03-07T06:00:34.695Z,86.98
2018-03-07T06:01:34.873Z,86.60
2018-03-07T06:02:35.049Z,86.79
2018-03-07T06:03:35.222Z,86.50
2018-03-07T06:04:35.402Z,86.03
2018-03-07T06:05:35.579Z,86.50
2018-03-07T06:06:35.756Z,86.31
2018-03-07T06:07:35.933Z,86.50
2018-03-07T06:08:36.104Z,86.03
2018-03-07T06:09:36.280Z,87.26
2018-03-07T06:10:36.455Z,86.88
2018-03-07T06:11:36.633Z,86.31
2018-03-07T06:12:36.805Z,86.98
2018-03-07T06:13:36.979Z,86.41
2018-03-07T06:14:37.155Z,86.03
2018-03-07T06:15:37.339Z,86.31
2018-03-07T06:16:37.507Z,86.69
2018-03-07T06:17:37.690Z,86.60
2018-03-07T06:18:37.865Z,86.69
2018-03-07T06:19:38.048Z,86.69
2018-03-07T06:20:38.223Z,87.07
2018-03-07T06:21:38.400Z,87.07
2018-03-07T06:22:38.591Z,87.07
2018-03-07T06:23:38.772Z,87.54
2018-03-07T06:24:38.942Z,87.73
2018-03-07T06:25:39.121Z,88.02
2018-03-07T06:26:39.291Z,87.54
2018-03-07T06:27:39.462Z,87.64
2018-03-07T06:28:39.638Z,88.21
2018-03-07T06:29:39.817Z,88.78
2018-03-07T06:30:40.242Z,88.96
2018-03-07T06:31:40.164Z,89.72
2018-03-07T06:32:40.335Z,90.01
2018-03-07T06:33:40.518Z,90.58
2018-03-07T06:34:40.685Z,90.39
2018-03-07T06:35:40.871Z,90.67
2018-03-07T06:36:41.038Z,90.86
2018-03-07T06:37:41.217Z,91.14
2018-03-07T06:38:41.390Z,91.14
2018-03-07T06:39:41.559Z,91.14
2018-03-07T06:40:41.739Z,90.95
2018-03-07T06:41:41.915Z,90.95
2018-03-07T06:42:42.092Z,90.95
2018-03-07T06:43:42.294Z,90.95
2018-03-07T06:44:42.430Z,91.71
2018-03-07T06:45:42.607Z,91.62
2018-03-07T06:46:42.781Z,91.43
2018-03-07T06:47:42.959Z,91.52
2018-03-07T06:48:43.137Z,91.14
2018-03-07T06:49:43.313Z,91.52
2018-03-07T06:50:43.492Z,91.90
2018-03-07T06:51:43.684Z,91.52
2018-03-07T06:52:43.846Z,92.00
2018-03-07T06:53:44.025Z,91.62
2018-03-07T06:54:44.205Z,92.38
2018-03-07T06:55:44.376Z,91.90
2018-03-07T06:56:44.549Z,92.28
2018-03-07T06:57:44.726Z,92.66
2018-03-07T06:58:44.915Z,91.90
2018-03-07T06:59:45.086Z,92.66
2018-03-07T07:00:45.262Z,92.52
2018-03-07T07:01:45.434Z,91.81
2018-03-07T07:02:45.612Z,92.47
2018-03-07T07:03:45.794Z,92.00
2018-03-07T07:04:45.962Z,92.28
2018-03-07T07:05:46.138Z,92.19
2018-03-07T07:06:46.313Z,92.94
2018-03-07T07:07:46.493Z,92.85
2018-03-07T07:08:46.659Z,92.85
2018-03-07T07:09:46.838Z,92.99
2018-03-07T07:10:47.026Z,93.18
2018-03-07T07:11:47.190Z,93.46
2018-03-07T07:12:47.369Z,93.04
2018-03-07T07:13:47.543Z,93.80
2018-03-07T07:14:47.732Z,93.46
2018-03-07T07:15:47.901Z,94.23
2018-03-07T07:16:48.094Z,93.94
2018-03-07T07:17:48.249Z,94.13
2018-03-07T07:18:48.438Z,94.04
2018-03-07T07:19:48.612Z,94.13
2018-03-07T07:20:48.790Z,94.51
2018-03-07T07:21:48.963Z,94.42
2018-03-07T07:22:49.138Z,94.51
2018-03-07T07:23:49.331Z,94.51
2018-03-07T07:24:49.491Z,94.42
2018-03-07T07:25:49.663Z,93.94
2018-03-07T07:26:49.858Z,94.04
2018-03-07T07:27:50.012Z,94.23
2018-03-07T07:28:50.188Z,93.94
2018-03-07T07:29:50.367Z,94.79
2018-03-07T07:30:50.544Z,94.70
2018-03-07T07:31:50.713Z,95.07
2018-03-07T07:32:50.906Z,94.98
2018-03-07T07:33:51.079Z,94.79
2018-03-07T07:34:51.250Z,94.89
2018-03-07T07:35:51.420Z,95.07
2018-03-07T07:36:51.605Z,94.79
2018-03-07T07:37:51.769Z,94.98
2018-03-07T07:38:51.944Z,94.70
2018-03-07T07:39:52.116Z,94.98
2018-03-07T07:40:52.310Z,95.07
2018-03-07T07:41:52.485Z,94.60
2018-03-07T07:42:52.652Z,94.89
2018-03-07T07:43:52.811Z,95.17
2018-03-07T07:44:52.987Z,95.17
2018-03-07T07:45:53.168Z,94.70
2018-03-07T07:46:53.347Z,94.60
2018-03-07T07:47:53.516Z,94.13
2018-03-07T07:48:53.709Z,94.13
2018-03-07T07:49:53.864Z,94.27
2018-03-07T07:50:54.032Z,93.94
2018-03-07T07:51:54.226Z,93.80
2018-03-07T07:52:54.397Z,93.32
2018-03-07T07:53:54.570Z,93.41
2018-03-07T07:54:54.763Z,93.51
2018-03-07T07:55:54.941Z,92.94
2018-03-07T07:56:55.114Z,92.85
2018-03-07T07:57:55.298Z,93.04
2018-03-07T07:58:55.473Z,92.94
2018-03-07T07:59:55.643Z,93.41
2018-03-07T08:00:55.828Z,93.04
2018-03-07T08:01:55.998Z,93.04
2018-03-07T08:02:56.178Z,93.51
2018-03-07T08:03:56.355Z,93.51
2018-03-07T08:04:56.524Z,93.04
2018-03-07T08:05:56.714Z,93.61
2018-03-07T08:06:56.879Z,94.08
2018-03-07T08:07:57.053Z,94.84
2018-03-07T08:08:57.227Z,94.46
2018-03-07T08:09:57.406Z,94.56
2018-03-07T08:10:57.613Z,94.37
2018-03-07T08:11:57.791Z,93.89
2018-03-07T08:12:57.955Z,93.41
2018-03-07T08:13:58.139Z,93.41
2018-03-07T08:14:58.301Z,93.08
2018-03-07T08:15:58.475Z,93.27
2018-03-07T08:16:58.653Z,92.80
2018-03-07T08:17:58.832Z,92.80
2018-03-07T08:18:59.018Z,92.23
2018-03-07T08:19:59.186Z,92.04
2018-03-07T08:20:59.363Z,92.42
2018-03-07T08:21:59.552Z,92.23
2018-03-07T08:22:59.710Z,92.42
2018-03-07T08:23:59.894Z,92.42
2018-03-07T08:25:00.082Z,93.08
2018-03-07T08:26:00.236Z,92.61
2018-03-07T08:27:00.405Z,92.80
2018-03-07T08:28:00.589Z,92.14
2018-03-07T08:29:00.771Z,92.14
2018-03-07T08:30:00.935Z,92.99
2018-03-07T08:31:01.116Z,92.61
2018-03-07T08:32:01.295Z,92.71
2018-03-07T08:33:01.474Z,93.08
2018-03-07T08:34:01.647Z,93.18
2018-03-07T08:35:01.822Z,92.42
2018-03-07T08:36:02.004Z,92.99
2018-03-07T08:37:02.181Z,93.27
2018-03-07T08:38:02.612Z,93.18
2018-03-07T08:39:02.532Z,93.18
2018-03-07T08:40:02.714Z,93.04
2018-03-07T08:41:02.894Z,92.76
2018-03-07T08:42:03.054Z,93.08
2018-03-07T08:43:03.240Z,92.52
2018-03-07T08:44:03.406Z,92.61
2018-03-07T08:45:03.583Z,92.61
2018-03-07T08:46:03.792Z,93.18
2018-03-07T08:47:03.943Z,92.90
2018-03-07T08:48:04.140Z,92.33
2018-03-07T08:49:04.311Z,92.80
2018-03-07T08:50:04.491Z,92.61
2018-03-07T08:51:04.666Z,92.23
2018-03-07T08:52:04.843Z,92.33
2018-03-07T08:53:05.015Z,91.85
2018-03-07T08:54:05.189Z,91.52
2018-03-07T08:55:05.365Z,90.33
2018-03-07T08:56:05.540Z,87.76
2018-03-07T08:57:05.725Z,87.38
2018-03-07T08:58:05.959Z,87.19
2018-03-07T08:59:06.073Z,87.95
2018-03-07T09:00:06.261Z,87.86
2018-03-07T09:01:06.437Z,88.05
2018-03-07T09:02:06.613Z,88.43
2018-03-07T09:03:06.792Z,88.34
2018-03-07T09:04:06.964Z,88.71
2018-03-07T09:05:07.140Z,88.86
2018-03-07T09:06:07.319Z,90.28
2018-03-07T09:07:07.494Z,90.38
2018-03-07T09:09:07.855Z,89.90
2018-03-07T09:10:08.042Z,89.72
2018-03-07T09:11:08.211Z,89.95
2018-03-07T09:12:08.394Z,89.76
2018-03-07T09:13:08.568Z,90.05
2018-03-07T09:14:08.756Z,89.28
2018-03-07T09:15:08.917Z,89.19
2018-03-07T09:16:09.097Z,89.19
2018-03-07T09:17:09.278Z,88.43
2018-03-07T09:18:09.455Z,87.76
2018-03-07T09:19:09.629Z,87.86
2018-03-07T09:20:09.802Z,87.67
2018-03-07T09:21:09.997Z,87.10
2018-03-07T09:22:10.154Z,87.24
2018-03-07T09:23:10.324Z,87.10
2018-03-07T09:24:10.503Z,87.01
2018-03-07T09:25:10.677Z,87.48
2018-03-07T09:26:10.855Z,88.05
2018-03-07T09:27:11.054Z,88.24
2018-03-07T09:28:11.212Z,88.05
2018-03-07T09:29:11.397Z,88.15
2018-03-07T09:30:11.570Z,88.09
2018-03-07T09:31:11.750Z,87.57
2018-03-07T09:32:11.931Z,88.05
2018-03-07T09:33:12.102Z,87.57
2018-03-07T09:34:12.286Z,87.86
2018-03-07T09:35:12.454Z,87.81
2018-03-07T09:36:12.625Z,87.05
2018-03-07T09:37:12.804Z,87.05
2018-03-07T09:38:12.983Z,86.95
2018-03-07T09:39:13.162Z,86.47
2018-03-07T09:40:13.335Z,85.72
2018-03-07T09:41:13.514Z,85.81
2018-03-07T09:42:13.696Z,85.34
2018-03-07T09:43:13.874Z,86.00
2018-03-07T09:44:14.055Z,85.53
2018-03-07T09:45:14.480Z,86.00
2018-03-07T09:46:14.410Z,85.81
2018-03-07T09:47:14.593Z,85.72
2018-03-07T09:48:14.764Z,86.00
2018-03-07T09:49:14.942Z,85.62
2018-03-07T09:50:15.120Z,86.14
2018-03-07T09:51:15.345Z,85.86
2018-03-07T09:52:15.487Z,85.53
2018-03-07T09:53:15.663Z,85.86
2018-03-07T09:54:15.842Z,85.47
2018-03-07T09:55:16.023Z,85.19
2018-03-07T09:56:16.217Z,84.47
2018-03-07T09:57:16.373Z,80.94
2018-03-07T09:58:16.560Z,77.36
2018-03-07T09:59:16.711Z,74.98
2018-03-07T10:00:16.884Z,74.98
2018-03-07T10:01:17.073Z,74.94
2018-03-07T10:02:17.242Z,76.18
2018-03-07T10:03:17.423Z,77.32
2018-03-07T10:04:17.601Z,76.18
2018-03-07T10:05:17.778Z,75.74
2018-03-07T10:06:17.967Z,72.82
2018-03-07T10:07:18.148Z,71.81
2018-03-07T10:08:18.335Z,70.00
2018-03-07T10:09:18.516Z,70.86
2018-03-07T10:10:18.693Z,70.63
2018-03-07T10:11:18.877Z,70.76
2018-03-07T10:12:19.059Z,71.30
2018-03-07T10:13:19.247Z,72.94
2018-03-07T10:14:19.429Z,74.56
2018-03-07T10:15:19.628Z,74.84
2018-03-07T10:16:19.796Z,75.99
2018-03-07T10:17:19.976Z,75.99
2018-03-07T10:18:20.157Z,77.09
2018-03-07T10:19:20.337Z,77.42
2018-03-07T10:20:20.526Z,77.95
2018-03-07T10:21:20.725Z,78.52
2018-03-07T10:22:20.880Z,77.47
2018-03-07T10:23:21.079Z,77.03
2018-03-07T10:24:21.239Z,78.14
2018-03-07T10:25:21.413Z,77.76
2018-03-07T10:26:21.592Z,77.89
2018-03-07T10:27:21.775Z,77.19
2018-03-07T10:28:21.956Z,77.13
2018-03-07T10:30:22.317Z,76.46
2018-03-07T10:31:22.481Z,75.99
2018-03-07T10:32:22.683Z,75.60
2018-03-07T10:33:22.857Z,75.26
2018-03-07T10:34:23.043Z,75.32
2018-03-07T10:35:23.221Z,76.75
2018-03-07T10:36:23.403Z,77.22
2018-03-07T10:37:23.585Z,76.40
2018-03-07T10:38:23.769Z,74.94
2018-03-07T10:39:23.950Z,74.94
2018-03-07T10:40:24.126Z,75.23
2018-03-07T10:41:24.309Z,73.36
2018-03-07T10:42:24.496Z,74.37
2018-03-07T10:43:24.674Z,74.02
2018-03-07T10:44:24.851Z,72.56
2018-03-07T10:45:25.036Z,74.46
2018-03-07T10:46:25.213Z,73.07
2018-03-07T10:47:25.398Z,71.30
2018-03-07T10:48:25.579Z,68.85
2018-03-07T10:49:25.802Z,68.24
2018-03-07T10:50:25.923Z,70.69
2018-03-07T10:51:26.133Z,72.75
2018-03-07T10:52:26.318Z,74.80
2018-03-07T10:53:26.484Z,75.67
2018-03-07T10:54:26.672Z,76.33
2018-03-07T10:55:26.852Z,76.04
2018-03-07T10:56:27.037Z,75.32
2018-03-07T10:57:27.215Z,73.93
2018-03-07T10:58:27.414Z,70.72
2018-03-07T10:59:27.588Z,68.38
2018-03-07T11:00:27.775Z,65.87
2018-03-07T11:01:27.960Z,63.39
2018-03-07T11:02:28.177Z,64.02
2018-03-07T11:03:28.320Z,65.33
2018-03-07T11:04:28.497Z,67.42
2018-03-07T11:05:28.680Z,66.91
2018-03-07T11:06:28.865Z,68.21
2018-03-07T11:07:29.043Z,69.93
2018-03-07T11:08:29.230Z,70.69
2018-03-07T11:09:29.415Z,71.03
2018-03-07T11:10:29.602Z,72.17
2018-03-07T11:11:29.779Z,72.17
2018-03-07T11:12:29.968Z,72.65
2018-03-07T11:13:30.790Z,73.22
2018-03-07T11:14:30.304Z,73.41
2018-03-07T11:15:30.489Z,73.89
2018-03-07T11:16:30.671Z,74.08
2018-03-07T11:17:30.847Z,73.51
2018-03-07T11:18:31.085Z,70.63
2018-03-07T11:19:31.224Z,67.61
2018-03-07T11:21:31.583Z,62.71
2018-03-07T11:22:31.764Z,61.06
2018-03-07T11:23:31.955Z,59.18
2018-03-07T11:24:32.133Z,58.06
2018-03-07T11:25:32.314Z,56.12
2018-03-07T11:26:32.503Z,56.76
2018-03-07T11:27:32.683Z,58.36
2018-03-07T11:28:32.878Z,58.14
2018-03-07T11:29:33.091Z,60.30
2018-03-07T11:30:33.235Z,61.60
2018-03-07T11:31:33.415Z,63.48
2018-03-07T11:32:33.600Z,64.43
2018-03-07T11:33:33.785Z,64.43
2018-03-07T11:34:33.966Z,66.05
2018-03-07T11:35:34.150Z,64.94
2018-03-07T11:36:34.395Z,64.65
2018-03-07T11:37:34.559Z,65.77
2018-03-07T11:38:34.766Z,67.74
2018-03-07T11:39:34.947Z,68.30
2018-03-07T11:40:35.115Z,68.94
2018-03-07T11:41:35.295Z,69.42
2018-03-07T11:42:35.473Z,69.79
2018-03-07T11:43:35.662Z,70.94
2018-03-07T11:45:36.022Z,71.22
2018-03-07T11:46:36.201Z,71.76
2018-03-07T11:47:36.404Z,71.80
2018-03-07T11:48:36.565Z,71.98
2018-03-07T11:49:36.746Z,71.98
2018-03-07T11:50:36.924Z,72.17
2018-03-07T11:51:37.106Z,72.27
2018-03-07T11:52:37.288Z,72.17
2018-03-07T11:53:37.477Z,72.52
2018-03-07T11:54:37.652Z,73.00
2018-03-07T11:55:37.835Z,73.00
2018-03-07T11:56:38.009Z,72.81
2018-03-07T11:57:38.193Z,73.19
2018-03-07T11:58:38.375Z,74.43
2018-03-07T11:59:38.563Z,74.24
2018-03-07T12:00:38.725Z,74.80
2018-03-07T12:01:38.900Z,74.80
2018-03-07T12:02:39.088Z,74.24
2018-03-07T12:03:39.268Z,74.33
2018-03-07T12:04:39.448Z,74.24
2018-03-07T12:05:39.628Z,74.24
2018-03-07T12:06:39.812Z,74.10
2018-03-07T12:07:39.994Z,74.29
2018-03-07T12:08:40.427Z,74.90
2018-03-07T12:09:40.349Z,74.67
2018-03-07T12:10:40.531Z,75.05
2018-03-07T12:11:40.703Z,75.62
2018-03-07T12:12:40.886Z,75.53
2018-03-07T12:13:41.073Z,76.10
2018-03-07T12:14:41.242Z,76.20
2018-03-07T12:15:41.415Z,76.10
2018-03-07T12:16:41.590Z,76.57
2018-03-07T12:17:41.785Z,76.01
2018-03-07T12:18:42.204Z,76.10
2018-03-07T12:19:42.127Z,76.29
2018-03-07T12:20:42.300Z,76.10
2018-03-07T12:21:42.486Z,76.01
2018-03-07T12:22:42.656Z,76.54
2018-03-07T12:23:42.835Z,76.67
2018-03-07T12:24:43.029Z,76.06
2018-03-07T12:25:43.192Z,77.11
2018-03-07T12:26:43.372Z,77.20
2018-03-07T12:27:43.605Z,77.11
2018-03-07T12:28:43.741Z,76.92
2018-03-07T12:29:43.935Z,77.11
2018-03-07T12:30:44.130Z,77.01
2018-03-07T12:31:44.314Z,77.30
2018-03-07T12:32:44.483Z,77.68
2018-03-07T12:33:44.667Z,77.20
2018-03-07T12:34:44.827Z,78.06
2018-03-07T12:35:45.013Z,77.87
2018-03-07T12:36:45.188Z,77.49
2018-03-07T12:37:45.366Z,77.01
2018-03-07T12:38:45.886Z,77.58
2018-03-07T12:39:45.700Z,77.77
2018-03-07T12:40:45.867Z,77.77
2018-03-07T12:41:46.110Z,77.58
2018-03-07T12:42:46.224Z,77.97
2018-03-07T12:43:46.641Z,78.16
2018-03-07T12:44:46.529Z,78.02
2018-03-07T12:45:46.696Z,78.59
2018-03-07T12:46:46.890Z,78.59
2018-03-07T12:47:47.053Z,78.30
2018-03-07T12:48:47.236Z,78.21
2018-03-07T12:49:47.403Z,78.34
2018-03-07T12:50:47.588Z,78.59
2018-03-07T12:51:47.757Z,78.11
2018-03-07T12:52:47.940Z,78.53
2018-03-07T12:53:48.114Z,78.16
2018-03-07T12:54:48.283Z,78.11
2018-03-07T12:55:48.462Z,77.45
2018-03-07T12:56:48.631Z,78.69
2018-03-07T12:57:49.049Z,78.50
2018-03-07T12:58:48.991Z,77.68
2018-03-07T12:59:49.162Z,77.45
2018-03-07T13:00:49.322Z,77.39
2018-03-07T13:01:49.509Z,77.20
2018-03-07T13:02:49.680Z,77.07
2018-03-07T13:03:49.863Z,77.64
2018-03-07T13:04:50.036Z,78.02